Time;durP1;ratioP1;P1;durP2;ratioP2;P2;SDS_P1;SDS_P2;PMS_P1;PMS_P2;Temp;Humidity;BMP_temperature;BMP_pressure;BME280_temperature;BME280_humidity;BME280_pressure;Samples;Min_cycle;Max_cycle;Signal;HPM_P1;HPM_P2
2022/12/08 00:00:48;;;;;;;4.32;2.60;;;0.10;99.90;;;;;;5063816;28;20051;-77
2022/12/08 00:03:15;;;;;;;4.30;2.55;;;0.10;99.90;;;;;;5060926;28;20052;-77
2022/12/08 00:11:18;;;;;;;3.75;2.08;;;0.10;99.90;;;;;;5047457;28;20048;-77
2022/12/08 00:13:45;;;;;;;3.22;2.00;;;0.10;99.90;;;;;;5060614;28;20048;-77
2022/12/08 00:16:11;;;;;;;3.28;2.00;;;0.10;99.90;;;;;;5061807;28;20055;-77
2022/12/08 00:18:38;;;;;;;3.50;2.03;;;0.00;99.90;;;;;;5046895;28;20041;-76
2022/12/08 00:21:05;;;;;;;4.30;2.60;;;0.00;99.90;;;;;;5042449;28;20703;-76
2022/12/08 00:23:32;;;;;;;3.33;2.20;;;0.00;99.90;;;;;;5043255;28;20215;-76
2022/12/08 00:26:05;;;;;;;3.47;2.33;;;0.00;99.90;;;;;;5061501;28;20056;-76
2022/12/08 00:28:32;;;;;;;2.90;1.90;;;0.00;99.90;;;;;;5044099;28;20049;-76
2022/12/08 00:30:59;;;;;;;3.10;2.67;;;-0.10;99.90;;;;;;5045451;28;20436;-76
2022/12/08 00:33:27;;;;;;;2.95;1.98;;;-0.10;99.90;;;;;;5061744;28;20056;-76
2022/12/08 00:35:54;;;;;;;2.50;1.60;;;-0.10;99.90;;;;;;5060457;28;20810;-76
2022/12/08 00:38:20;;;;;;;2.67;1.90;;;-0.10;99.90;;;;;;5061590;28;20053;-76
2022/12/08 00:40:47;;;;;;;3.20;1.90;;;-0.10;99.90;;;;;;5061620;28;20057;-76
2022/12/08 00:43:14;;;;;;;2.70;1.65;;;-0.20;99.90;;;;;;5060295;28;20091;-77
2022/12/08 00:45:41;;;;;;;3.05;1.73;;;-0.20;99.90;;;;;;5044685;28;20452;-77
2022/12/08 00:48:09;;;;;;;2.83;1.83;;;-0.20;99.90;;;;;;5044146;28;20470;-77
2022/12/08 00:50:36;;;;;;;3.72;1.95;;;-0.20;99.90;;;;;;5044767;28;20048;-76
2022/12/08 00:53:03;;;;;;;2.85;2.05;;;-0.30;99.90;;;;;;5027653;28;20056;-77
2022/12/08 00:55:29;;;;;;;3.20;2.30;;;-0.30;99.90;;;;;;5028452;28;20048;-76
2022/12/08 00:57:56;;;;;;;2.67;2.05;;;-0.30;99.90;;;;;;5059735;28;20523;-76
2022/12/08 01:00:23;;;;;;;2.60;1.80;;;-0.30;99.90;;;;;;5061270;28;20052;-77
2022/12/08 01:02:50;;;;;;;2.85;2.10;;;-0.30;99.90;;;;;;5061760;28;20056;-77
2022/12/08 01:05:16;;;;;;;2.45;1.95;;;-0.30;99.90;;;;;;5060840;28;20094;-76
2022/12/08 01:07:43;;;;;;;2.95;1.90;;;-0.30;99.90;;;;;;5060251;28;20174;-77
2022/12/08 01:10:10;;;;;;;2.47;1.60;;;-0.30;99.90;;;;;;5061446;28;20048;-77
2022/12/08 01:12:37;;;;;;;2.50;1.98;;;-0.30;99.90;;;;;;5060906;28;20044;-76
2022/12/08 01:15:04;;;;;;;3.13;1.92;;;-0.30;99.90;;;;;;5060898;28;20076;-77
2022/12/08 01:17:30;;;;;;;2.15;1.42;;;-0.30;99.90;;;;;;5057806;28;20052;-76
2022/12/08 01:19:58;;;;;;;2.25;1.35;;;-0.40;99.90;;;;;;5040445;28;20051;-77
2022/12/08 01:22:25;;;;;;;3.20;2.00;;;-0.40;99.90;;;;;;5041755;28;20052;-76
2022/12/08 01:24:52;;;;;;;2.78;1.67;;;-0.40;99.90;;;;;;5060988;28;20341;-77
2022/12/08 01:27:18;;;;;;;1.77;1.40;;;-0.40;99.90;;;;;;5062206;28;20453;-76
2022/12/08 01:29:45;;;;;;;3.10;2.00;;;-0.40;99.90;;;;;;5043445;28;20059;-77
2022/12/08 01:32:12;;;;;;;3.47;2.58;;;-0.40;99.90;;;;;;5061984;28;20044;-76
2022/12/08 01:34:38;;;;;;;3.95;2.70;;;-0.50;99.90;;;;;;5059533;28;20052;-76
2022/12/08 01:37:06;;;;;;;3.13;2.13;;;-0.40;99.90;;;;;;5061557;28;20450;-76
2022/12/08 01:39:33;;;;;;;3.97;2.53;;;-0.40;99.90;;;;;;5061862;28;20092;-77
2022/12/08 01:42:00;;;;;;;3.40;2.22;;;-0.50;99.90;;;;;;5060538;28;20040;-77
2022/12/08 01:44:26;;;;;;;4.38;2.45;;;-0.50;99.90;;;;;;5062599;28;20075;-77
2022/12/08 01:46:53;;;;;;;3.30;2.03;;;-0.50;99.90;;;;;;5063871;28;20044;-77
2022/12/08 01:49:21;;;;;;;3.35;2.38;;;-0.50;99.90;;;;;;5029855;28;20079;-76
2022/12/08 01:51:57;;;;;;;3.75;2.70;;;-0.50;99.90;;;;;;5063160;28;20066;-76
2022/12/08 01:54:27;;;;;;;3.40;2.20;;;-0.50;99.90;;;;;;5062976;28;20083;-76
2022/12/08 01:57:08;;;;;;;4.35;2.75;;;-0.50;99.90;;;;;;5047287;28;20057;-76
2022/12/08 01:59:38;;;;;;;3.42;2.30;;;-0.50;99.90;;;;;;5062500;28;20052;-76
2022/12/08 02:02:04;;;;;;;3.97;2.88;;;-0.50;99.90;;;;;;5047129;28;20407;-76
2022/12/08 02:04:31;;;;;;;4.30;2.50;;;-0.60;99.90;;;;;;5062402;28;20498;-76
2022/12/08 02:06:58;;;;;;;2.50;1.98;;;-0.60;99.90;;;;;;5046296;28;20055;-76
2022/12/08 02:09:32;;;;;;;4.57;3.13;;;-0.60;99.90;;;;;;5031927;28;20052;-76
2022/12/08 02:11:58;;;;;;;3.53;2.30;;;-0.60;99.90;;;;;;5042594;28;20127;-78
2022/12/08 02:14:25;;;;;;;3.78;2.45;;;-0.60;99.90;;;;;;5042507;28;20103;-76
2022/12/08 02:17:18;;;;;;;4.25;2.50;;;-0.60;99.90;;;;;;5062764;28;20044;-76
2022/12/08 02:20:19;;;;;;;3.42;1.88;;;-0.70;99.90;;;;;;5041839;28;20072;-76
2022/12/08 02:23:05;;;;;;;2.90;2.10;;;-0.70;99.90;;;;;;5042394;28;20471;-76
2022/12/08 02:25:43;;;;;;;2.88;2.38;;;-0.70;99.90;;;;;;5034838;28;20048;-76
2022/12/08 02:28:31;;;;;;;2.40;1.83;;;-0.70;99.90;;;;;;5029720;28;20056;-76
2022/12/08 02:31:26;;;;;;;2.65;1.98;;;-0.70;99.90;;;;;;5048170;28;20060;-75
2022/12/08 02:34:02;;;;;;;2.65;1.90;;;-0.70;99.90;;;;;;5062414;28;20230;-76
2022/12/08 02:36:46;;;;;;;2.80;2.15;;;-0.80;99.90;;;;;;5065485;28;20056;-76
2022/12/08 02:39:20;;;;;;;1.60;1.30;;;-0.70;99.90;;;;;;5054091;28;20048;-76
2022/12/08 02:42:06;;;;;;;3.25;1.60;;;-0.80;99.90;;;;;;5053155;28;20341;-76
2022/12/08 02:44:44;;;;;;;3.05;1.75;;;-0.80;99.90;;;;;;5068241;28;20056;-76
2022/12/08 02:47:18;;;;;;;2.55;1.90;;;-0.80;99.90;;;;;;5067609;28;20502;-76
2022/12/08 02:49:44;;;;;;;2.90;1.80;;;-0.80;99.90;;;;;;5066363;28;20052;-76
2022/12/08 02:52:11;;;;;;;3.05;1.70;;;-0.90;99.90;;;;;;5067305;28;20052;-76
2022/12/08 02:54:45;;;;;;;3.03;2.03;;;-0.90;99.90;;;;;;5068157;28;20148;-76
2022/12/08 02:57:24;;;;;;;2.33;1.85;;;-0.90;99.90;;;;;;5051405;28;20048;-76
2022/12/08 03:00:22;;;;;;;2.15;1.50;;;-0.90;99.90;;;;;;5066943;28;20052;-75
2022/12/08 03:03:08;;;;;;;2.33;1.45;;;-0.90;99.90;;;;;;5067266;28;20433;-75
2022/12/08 03:05:56;;;;;;;2.78;1.55;;;-0.90;99.90;;;;;;5066991;28;20106;-76
2022/12/08 03:08:42;;;;;;;1.80;1.33;;;-1.00;99.90;;;;;;5067510;28;20058;-76
2022/12/08 03:11:21;;;;;;;2.35;1.75;;;-1.00;99.90;;;;;;5067323;28;20074;-76
2022/12/08 03:13:50;;;;;;;3.03;1.90;;;-1.00;99.90;;;;;;5034587;28;20076;-76
2022/12/08 03:16:21;;;;;;;1.67;1.30;;;-1.00;99.90;;;;;;5050753;28;20058;-75
2022/12/08 03:18:51;;;;;;;1.85;1.45;;;-1.00;99.90;;;;;;5033953;28;20709;-76
2022/12/08 03:21:18;;;;;;;2.67;1.77;;;-1.00;99.90;;;;;;5050109;28;20510;-75
2022/12/08 03:23:45;;;;;;;2.55;1.60;;;-1.00;99.90;;;;;;5066621;28;20049;-76
2022/12/08 03:26:24;;;;;;;2.50;1.73;;;-1.10;99.90;;;;;;5050753;28;20055;-76
2022/12/08 03:28:51;;;;;;;2.03;1.45;;;-1.10;99.90;;;;;;5034339;28;20056;-76
2022/12/08 03:31:18;;;;;;;2.75;1.80;;;-1.10;99.90;;;;;;5066780;28;20045;-76
2022/12/08 03:33:45;;;;;;;2.65;1.70;;;-1.10;99.90;;;;;;5049711;28;20675;-76
2022/12/08 03:36:12;;;;;;;3.40;2.13;;;-1.10;99.90;;;;;;5050050;28;20412;-75
2022/12/08 03:38:43;;;;;;;2.40;1.58;;;-1.20;99.90;;;;;;5067880;28;20056;-76
2022/12/08 03:41:19;;;;;;;3.03;1.95;;;-1.20;99.90;;;;;;5068181;28;20429;-77
2022/12/08 03:43:53;;;;;;;2.88;1.85;;;-1.20;99.90;;;;;;5066760;28;20053;-76
2022/12/08 03:46:21;;;;;;;2.00;1.67;;;-1.20;99.90;;;;;;5067479;28;20040;-76
2022/12/08 03:48:47;;;;;;;3.60;2.38;;;-1.20;99.90;;;;;;5049808;28;20036;-76
2022/12/08 03:51:14;;;;;;;2.58;1.75;;;-1.20;99.90;;;;;;5049321;28;20051;-76
2022/12/08 03:53:40;;;;;;;2.92;1.42;;;-1.30;99.90;;;;;;5067605;28;20468;-76
2022/12/08 03:56:31;;;;;;;2.60;1.63;;;-1.30;99.90;;;;;;5033603;28;20053;-76
2022/12/08 03:58:58;;;;;;;3.40;2.35;;;-1.30;99.90;;;;;;5049487;28;20411;-76
2022/12/08 04:01:26;;;;;;;2.47;1.80;;;-1.30;99.90;;;;;;5033585;28;20072;-76
2022/12/08 04:03:53;;;;;;;3.60;1.90;;;-1.30;99.90;;;;;;5049534;28;20452;-76
2022/12/08 04:06:20;;;;;;;2.35;1.70;;;-1.40;99.90;;;;;;5032557;28;20041;-76
2022/12/08 04:08:47;;;;;;;2.80;2.05;;;-1.30;99.90;;;;;;5067439;28;20472;-76
2022/12/08 04:11:13;;;;;;;3.42;2.20;;;-1.30;99.90;;;;;;5066125;28;20049;-76
2022/12/08 04:13:40;;;;;;;3.58;2.10;;;-1.30;99.90;;;;;;5064776;28;20518;-76
2022/12/08 04:16:07;;;;;;;2.20;1.90;;;-1.30;99.90;;;;;;5065987;28;20534;-76
2022/12/08 04:18:34;;;;;;;3.08;1.83;;;-1.30;99.90;;;;;;5065720;28;20598;-76
2022/12/08 04:21:00;;;;;;;3.15;2.30;;;-1.30;99.90;;;;;;5031922;28;20044;-77
2022/12/08 04:23:27;;;;;;;2.45;1.83;;;-1.30;99.90;;;;;;5046689;28;20063;-76
2022/12/08 04:25:54;;;;;;;3.38;1.90;;;-1.30;99.90;;;;;;5047453;28;20053;-76
2022/12/08 04:28:21;;;;;;;2.80;2.08;;;-1.40;99.90;;;;;;5046182;28;20053;-76
2022/12/08 04:30:48;;;;;;;3.25;2.20;;;-1.40;99.90;;;;;;5045597;28;20045;-76
2022/12/08 04:33:14;;;;;;;3.20;1.85;;;-1.40;99.90;;;;;;5031104;28;20060;-76
2022/12/08 04:35:41;;;;;;;3.03;2.28;;;-1.40;99.90;;;;;;5065073;28;20041;-76
2022/12/08 04:38:08;;;;;;;2.80;1.92;;;-1.40;99.90;;;;;;5065137;28;20052;-76
2022/12/08 04:40:34;;;;;;;3.22;2.28;;;-1.40;99.90;;;;;;5067332;28;20040;-76
2022/12/08 04:43:01;;;;;;;3.53;2.40;;;-1.40;99.90;;;;;;5047729;28;20315;-76
2022/12/08 04:45:28;;;;;;;5.28;2.88;;;-1.40;99.90;;;;;;5065759;28;20056;-76
2022/12/08 04:47:55;;;;;;;3.63;2.05;;;-1.40;99.90;;;;;;5048613;28;20056;-76
2022/12/08 04:50:21;;;;;;;2.88;2.10;;;-1.40;99.90;;;;;;5048825;28;20048;-75
2022/12/08 04:52:48;;;;;;;3.28;2.17;;;-1.40;99.90;;;;;;5065961;28;20056;-76
2022/12/08 04:55:15;;;;;;;3.42;2.40;;;-1.40;99.90;;;;;;5065071;28;20519;-75
2022/12/08 04:57:41;;;;;;;2.95;2.08;;;-1.40;99.90;;;;;;5064522;28;20433;-76
2022/12/08 05:00:08;;;;;;;3.80;2.40;;;-1.40;99.90;;;;;;5065025;28;20056;-76
2022/12/08 05:02:35;;;;;;;2.78;2.00;;;-1.50;99.90;;;;;;5048024;28;20045;-75
2022/12/08 05:05:03;;;;;;;3.28;2.40;;;-1.50;99.90;;;;;;5064441;28;20056;-76
2022/12/08 05:07:29;;;;;;;2.83;1.98;;;-1.50;99.90;;;;;;5047733;28;20125;-76
2022/12/08 05:09:56;;;;;;;2.47;1.67;;;-1.60;99.90;;;;;;5031861;28;20585;-76
2022/12/08 05:12:23;;;;;;;3.03;1.95;;;-1.70;99.90;;;;;;5065852;28;20056;-76
2022/12/08 05:14:49;;;;;;;3.00;2.10;;;-1.70;99.90;;;;;;5065258;28;20114;-76
2022/12/08 05:17:16;;;;;;;2.88;1.80;;;-1.70;99.90;;;;;;5065073;28;20144;-76
2022/12/08 05:19:43;;;;;;;3.33;1.92;;;-1.70;99.90;;;;;;5065114;28;20040;-75
2022/12/08 05:22:10;;;;;;;2.78;2.38;;;-1.70;99.90;;;;;;5064729;28;20059;-76
2022/12/08 05:24:37;;;;;;;3.83;2.13;;;-1.70;99.90;;;;;;5063691;28;20059;-76
2022/12/08 05:27:11;;;;;;;3.15;2.20;;;-1.70;99.90;;;;;;5064033;28;20060;-76
2022/12/08 05:29:37;;;;;;;2.70;1.88;;;-1.70;99.90;;;;;;5047222;28;20049;-75
2022/12/08 05:32:05;;;;;;;1.75;1.50;;;-1.70;99.90;;;;;;5064398;28;20056;-76
2022/12/08 05:34:31;;;;;;;2.58;1.73;;;-1.70;99.90;;;;;;5046598;28;20136;-75
2022/12/08 05:36:58;;;;;;;3.10;2.30;;;-1.70;99.90;;;;;;5064225;28;20052;-76
2022/12/08 05:39:25;;;;;;;2.90;1.95;;;-1.80;99.90;;;;;;5058906;28;20049;-75
2022/12/08 05:41:51;;;;;;;3.05;2.00;;;-1.80;99.90;;;;;;5064426;28;20041;-76
2022/12/08 05:44:18;;;;;;;2.90;2.08;;;-1.70;99.90;;;;;;5058408;28;20048;-76
2022/12/08 05:46:45;;;;;;;2.58;2.38;;;-1.70;99.90;;;;;;5065647;28;20057;-76
2022/12/08 05:49:11;;;;;;;3.17;2.25;;;-1.80;99.90;;;;;;5040724;28;20080;-76
2022/12/08 05:51:38;;;;;;;2.85;2.10;;;-1.80;99.90;;;;;;5060639;28;20074;-76
2022/12/08 05:54:05;;;;;;;3.22;1.98;;;-1.80;99.90;;;;;;5057404;28;20597;-76
2022/12/08 05:56:32;;;;;;;3.17;2.20;;;-1.80;99.90;;;;;;5062710;28;20056;-76
2022/12/08 05:58:58;;;;;;;3.55;2.20;;;-1.80;99.90;;;;;;5049274;28;20060;-76
2022/12/08 06:01:27;;;;;;;3.65;1.92;;;-1.80;99.90;;;;;;5055101;28;20060;-76
2022/12/08 06:03:54;;;;;;;2.45;2.00;;;-1.80;99.90;;;;;;5052778;28;20052;-77
2022/12/08 06:06:20;;;;;;;3.70;2.17;;;-1.80;99.90;;;;;;5053258;28;20052;-77
2022/12/08 06:08:47;;;;;;;2.25;1.70;;;-1.80;99.90;;;;;;5057399;28;20058;-76
2022/12/08 06:11:32;;;;;;;3.45;2.22;;;-1.80;99.90;;;;;;5053991;28;20330;-77
2022/12/08 06:13:59;;;;;;;3.25;2.47;;;-1.80;99.90;;;;;;5066726;28;20089;-76
2022/12/08 06:16:26;;;;;;;3.30;2.10;;;-1.80;99.90;;;;;;5057886;28;20115;-76
2022/12/08 06:18:53;;;;;;;2.88;2.13;;;-1.80;99.90;;;;;;5068614;28;20048;-77
2022/12/08 06:21:20;;;;;;;3.60;2.20;;;-1.80;99.90;;;;;;5046243;28;20052;-76
2022/12/08 06:23:51;;;;;;;2.50;1.92;;;-1.80;99.90;;;;;;5044374;28;20127;-76
2022/12/08 06:26:18;;;;;;;2.80;1.88;;;-1.80;99.90;;;;;;5044897;28;20040;-75
2022/12/08 06:28:45;;;;;;;3.97;2.35;;;-1.80;99.90;;;;;;5047808;28;20186;-75
2022/12/08 06:31:19;;;;;;;4.68;2.45;;;-1.90;99.90;;;;;;5039841;28;20063;-75
2022/12/08 06:33:46;;;;;;;3.05;2.33;;;-1.80;99.90;;;;;;5058325;28;20300;-75
2022/12/08 06:36:13;;;;;;;2.67;1.80;;;-1.90;99.90;;;;;;5053195;28;20048;-75
2022/12/08 06:38:40;;;;;;;2.53;1.88;;;-1.90;99.90;;;;;;5059616;28;20456;-76
2022/12/08 06:41:09;;;;;;;3.10;2.13;;;-2.00;99.90;;;;;;5062875;28;20494;-75
2022/12/08 06:43:36;;;;;;;3.08;2.13;;;-1.90;99.90;;;;;;5072693;28;20062;-75
2022/12/08 06:46:04;;;;;;;5.78;3.05;;;-1.90;99.90;;;;;;5073004;28;20491;-75
2022/12/08 06:48:31;;;;;;;3.15;1.88;;;-2.00;99.90;;;;;;5060647;28;20441;-75
2022/12/08 06:51:14;;;;;;;4.55;3.00;;;-1.90;99.90;;;;;;5063052;28;20052;-75
2022/12/08 06:53:41;;;;;;;2.50;1.93;;;-2.00;99.90;;;;;;5065790;28;20128;-75
2022/12/08 06:56:08;;;;;;;3.47;2.55;;;-2.00;99.90;;;;;;5058662;28;20542;-76
2022/12/08 06:58:35;;;;;;;3.92;2.17;;;-2.00;99.90;;;;;;5048248;28;20086;-75
2022/12/08 07:01:10;;;;;;;3.70;2.63;;;-2.00;99.90;;;;;;5041696;28;20055;-75
2022/12/08 07:03:37;;;;;;;3.17;2.15;;;-2.00;99.90;;;;;;5058500;28;20106;-75
2022/12/08 07:06:04;;;;;;;2.75;2.22;;;-2.00;99.90;;;;;;5058851;28;20045;-79
2022/12/08 07:08:31;;;;;;;2.85;1.83;;;-2.00;99.90;;;;;;5062425;28;20063;-78
2022/12/08 07:10:58;;;;;;;3.40;2.22;;;-2.00;99.90;;;;;;5057939;28;20055;-78
2022/12/08 07:13:25;;;;;;;3.80;2.33;;;-2.00;99.90;;;;;;5060352;28;20433;-78
2022/12/08 07:15:51;;;;;;;4.03;2.70;;;-2.10;99.90;;;;;;5062132;28;20067;-78
2022/12/08 07:18:18;;;;;;;3.35;2.15;;;-2.00;99.90;;;;;;5058014;28;20462;-78
2022/12/08 07:20:45;;;;;;;3.28;2.28;;;-2.00;99.90;;;;;;5060004;28;20465;-78
2022/12/08 07:23:12;;;;;;;3.17;2.33;;;-2.10;99.90;;;;;;5066634;28;20123;-79
2022/12/08 07:25:38;;;;;;;5.20;3.20;;;-2.00;99.90;;;;;;5066979;28;20055;-76
2022/12/08 07:28:10;;;;;;;3.28;2.00;;;-2.00;99.90;;;;;;5064436;28;20128;-77
2022/12/08 07:30:37;;;;;;;3.38;2.20;;;-2.00;99.90;;;;;;5065149;28;20048;-76
2022/12/08 07:33:05;;;;;;;2.30;1.80;;;-2.00;99.90;;;;;;5047499;28;20044;-76
2022/12/08 07:35:32;;;;;;;3.35;2.55;;;-2.00;99.90;;;;;;5064525;28;20103;-78
2022/12/08 07:38:01;;;;;;;2.92;2.33;;;-2.00;99.90;;;;;;5048200;28;20458;-77
2022/12/08 07:40:27;;;;;;;2.65;2.17;;;-2.00;99.90;;;;;;5064968;28;20049;-76
2022/12/08 07:42:54;;;;;;;4.05;2.53;;;-2.00;99.90;;;;;;5064711;28;20044;-77
2022/12/08 07:45:21;;;;;;;3.45;3.08;;;-2.00;99.90;;;;;;5065011;28;20391;-77
2022/12/08 07:47:55;;;;;;;3.63;2.67;;;-2.00;99.90;;;;;;5063856;28;20052;-77
2022/12/08 07:50:22;;;;;;;3.70;2.53;;;-2.00;99.90;;;;;;5063259;28;20079;-77
2022/12/08 07:52:48;;;;;;;3.30;2.30;;;-2.00;99.90;;;;;;5061195;28;20475;-77
2022/12/08 07:55:15;;;;;;;4.05;3.13;;;-2.00;99.90;;;;;;5045133;28;20144;-77
2022/12/08 07:57:42;;;;;;;4.18;2.47;;;-2.10;99.90;;;;;;5061218;28;20045;-77
2022/12/08 08:00:09;;;;;;;3.15;2.35;;;-2.10;99.90;;;;;;5062105;28;20041;-76
2022/12/08 08:02:36;;;;;;;2.88;2.00;;;-2.10;99.90;;;;;;5044658;28;20480;-76
2022/12/08 08:05:03;;;;;;;4.07;2.33;;;-2.10;99.90;;;;;;5044871;28;20511;-76
2022/12/08 08:07:31;;;;;;;2.90;2.03;;;-2.10;99.90;;;;;;5061933;28;20419;-77
2022/12/08 08:09:57;;;;;;;4.18;2.55;;;-2.10;99.90;;;;;;5062291;28;20048;-76
2022/12/08 08:12:24;;;;;;;3.25;2.10;;;-2.00;99.90;;;;;;5062306;28;20078;-76
2022/12/08 08:14:59;;;;;;;3.45;2.33;;;-2.00;99.90;;;;;;5046873;28;20131;-77
2022/12/08 08:17:27;;;;;;;3.58;2.58;;;-1.90;99.90;;;;;;5046540;28;20163;-76
2022/12/08 08:19:54;;;;;;;3.55;2.00;;;-1.90;99.90;;;;;;5061751;28;20070;-76
2022/12/08 08:22:21;;;;;;;3.50;2.08;;;-1.90;99.90;;;;;;5028695;28;20118;-77
2022/12/08 08:24:47;;;;;;;4.05;2.30;;;-1.80;99.90;;;;;;5061528;28;20098;-77
2022/12/08 08:27:14;;;;;;;2.47;1.75;;;-1.80;99.90;;;;;;5044673;28;20412;-76
2022/12/08 08:29:41;;;;;;;3.05;2.20;;;-1.80;99.90;;;;;;5029857;28;20140;-76
2022/12/08 08:32:07;;;;;;;4.40;2.50;;;-1.70;99.90;;;;;;5066077;28;20045;-76
2022/12/08 08:34:34;;;;;;;3.03;2.05;;;-1.70;99.90;;;;;;5065419;28;20055;-76
2022/12/08 08:37:01;;;;;;;3.22;2.22;;;-1.60;99.90;;;;;;5064889;28;20492;-76
2022/12/08 08:39:30;;;;;;;2.58;1.92;;;-1.60;99.90;;;;;;5048102;28;20110;-77
2022/12/08 08:41:57;;;;;;;2.55;2.22;;;-1.60;99.90;;;;;;5048481;28;20132;-77
2022/12/08 08:44:23;;;;;;;2.80;1.92;;;-1.60;99.90;;;;;;5063217;28;20048;-76
2022/12/08 08:46:50;;;;;;;2.67;2.28;;;-1.50;99.90;;;;;;5048621;28;20557;-77
2022/12/08 08:49:17;;;;;;;2.72;1.90;;;-1.40;99.90;;;;;;5047914;28;20141;-76
2022/12/08 08:51:44;;;;;;;3.13;2.25;;;-1.40;99.90;;;;;;5048017;28;20048;-76
2022/12/08 08:54:11;;;;;;;3.20;1.95;;;-1.40;99.90;;;;;;5047514;28;20059;-76
2022/12/08 08:56:38;;;;;;;2.55;1.73;;;-1.40;99.90;;;;;;5048109;28;20139;-76
2022/12/08 08:59:04;;;;;;;2.28;1.70;;;-1.40;99.90;;;;;;5046773;28;20415;-76
2022/12/08 09:01:31;;;;;;;3.00;2.00;;;-1.30;99.90;;;;;;5048510;28;20044;-77
2022/12/08 09:03:58;;;;;;;2.45;1.70;;;-1.30;99.90;;;;;;5047367;28;20060;-77
2022/12/08 09:06:26;;;;;;;3.42;2.28;;;-1.30;99.90;;;;;;5065454;28;20044;-76
2022/12/08 09:08:53;;;;;;;3.47;2.00;;;-1.30;99.90;;;;;;5066004;28;20063;-76
2022/12/08 09:11:22;;;;;;;3.22;2.08;;;-1.20;99.90;;;;;;5065732;28;20056;-77
2022/12/08 09:13:49;;;;;;;3.05;2.08;;;-1.20;99.90;;;;;;5062949;28;20063;-76
2022/12/08 09:16:16;;;;;;;3.00;1.92;;;-1.20;99.90;;;;;;5048084;28;20144;-77
2022/12/08 09:18:43;;;;;;;3.70;2.20;;;-1.20;99.90;;;;;;5065187;28;20049;-76
2022/12/08 09:21:13;;;;;;;3.70;2.63;;;-1.20;99.90;;;;;;5065143;28;20429;-77
2022/12/08 09:23:40;;;;;;;3.38;2.35;;;-1.10;99.90;;;;;;5045568;28;20080;-76
2022/12/08 09:26:07;;;;;;;5.10;3.25;;;-1.00;99.90;;;;;;5062309;28;20056;-77
2022/12/08 09:28:34;;;;;;;5.07;3.03;;;-1.00;99.90;;;;;;5057814;28;20363;-77
2022/12/08 09:31:00;;;;;;;3.83;2.63;;;-0.90;99.90;;;;;;5041804;28;20055;-78
2022/12/08 09:33:27;;;;;;;4.07;2.80;;;-0.90;99.90;;;;;;5043367;28;20064;-77
2022/12/08 09:35:54;;;;;;;3.78;2.53;;;-0.80;99.90;;;;;;5052990;28;20048;-77
2022/12/08 09:38:21;;;;;;;5.43;2.90;;;-0.80;99.90;;;;;;5038611;28;20054;-77
2022/12/08 09:40:51;;;;;;;4.03;2.90;;;-0.70;99.90;;;;;;5046472;28;20055;-76
2022/12/08 09:43:44;;;;;;;3.80;2.80;;;-0.60;99.90;;;;;;5054824;28;20133;-76
2022/12/08 09:46:13;;;;;;;3.42;2.08;;;-0.60;99.90;;;;;;5046395;28;20048;-77
2022/12/08 09:48:45;;;;;;;4.20;2.40;;;-0.60;99.90;;;;;;5059302;28;20044;-77
2022/12/08 09:51:12;;;;;;;4.20;2.50;;;-0.60;99.90;;;;;;5043027;28;20052;-76
2022/12/08 09:53:50;;;;;;;3.50;2.67;;;-0.50;99.90;;;;;;5043420;28;20079;-77
2022/12/08 09:56:29;;;;;;;3.97;2.45;;;-0.40;99.90;;;;;;5062219;28;20052;-77
2022/12/08 09:58:58;;;;;;;3.50;2.35;;;-0.40;99.90;;;;;;5060532;28;20052;-77
2022/12/08 10:01:36;;;;;;;2.80;2.10;;;-0.30;99.90;;;;;;5060175;28;20464;-77
2022/12/08 10:04:20;;;;;;;3.70;2.67;;;-0.30;99.90;;;;;;5059891;28;20127;-77
2022/12/08 10:07:03;;;;;;;;;;;-0.20;99.90;;;;;;5046819;28;20056;-77
2022/12/08 10:09:59;;;;;;;4.10;2.95;;;-0.20;99.90;;;;;;5061226;28;19924;-77
2022/12/08 10:13:02;;;;;;;4.63;3.30;;;-0.10;99.90;;;;;;5044238;28;20091;-76
2022/12/08 10:15:44;;;;;;;5.07;3.95;;;0.00;99.90;;;;;;5047079;28;20423;-76
2022/12/08 10:18:14;;;;;;;5.25;3.85;;;0.00;99.90;;;;;;5044830;28;20052;-76
2022/12/08 10:20:43;;;;;;;5.85;3.88;;;0.10;99.90;;;;;;5043725;28;20089;-77
2022/12/08 10:23:31;;;;;;;4.82;3.78;;;0.10;99.90;;;;;;5043111;28;20052;-77
2022/12/08 10:26:02;;;;;;;7.70;4.07;;;0.20;99.90;;;;;;5043676;28;20084;-77
2022/12/08 10:28:30;;;;;;;4.20;3.50;;;0.20;99.90;;;;;;5059030;28;20434;-76
2022/12/08 10:30:56;;;;;;;5.75;4.22;;;0.20;99.90;;;;;;5040213;28;20083;-77
2022/12/08 10:33:23;;;;;;;8.68;5.70;;;0.30;99.90;;;;;;5049723;28;20515;-77
2022/12/08 10:36:03;;;;;;;6.38;4.70;;;0.30;99.90;;;;;;5060464;28;20049;-77
2022/12/08 10:38:31;;;;;;;8.27;6.15;;;0.40;99.90;;;;;;5044446;28;20092;-77
2022/12/08 10:41:05;;;;;;;8.77;5.72;;;0.40;99.90;;;;;;5059674;28;20401;-77
2022/12/08 10:43:32;;;;;;;8.50;6.30;;;0.50;99.90;;;;;;5058580;28;20136;-77
2022/12/08 10:46:19;;;;;;;6.65;5.40;;;0.50;99.90;;;;;;5061516;28;20055;-77
2022/12/08 10:48:47;;;;;;;8.63;6.07;;;0.60;99.90;;;;;;5059126;28;20819;-77
2022/12/08 10:51:27;;;;;;;8.07;5.90;;;0.60;99.90;;;;;;5043265;28;20165;-77
2022/12/08 10:53:54;;;;;;;8.40;6.32;;;0.60;99.90;;;;;;5043534;28;20048;-77
2022/12/08 10:56:25;;;;;;;6.95;5.78;;;0.70;99.90;;;;;;5060963;28;20049;-77
2022/12/08 10:59:03;;;;;;;8.30;6.30;;;0.80;99.90;;;;;;5029842;28;20056;-77
2022/12/08 11:01:37;;;;;;;6.90;5.18;;;0.80;99.90;;;;;;5063673;28;20353;-77
2022/12/08 11:04:10;;;;;;;6.03;4.75;;;0.80;99.90;;;;;;5046908;28;20141;-77
2022/12/08 11:06:38;;;;;;;6.90;4.95;;;0.90;99.90;;;;;;5047726;28;20053;-77
2022/12/08 11:09:14;;;;;;;7.55;5.90;;;0.90;99.90;;;;;;5047227;28;20067;-77
2022/12/08 11:11:57;;;;;;;6.72;4.78;;;1.00;99.90;;;;;;5065139;28;20048;-77
2022/12/08 11:14:26;;;;;;;6.50;4.90;;;1.10;99.90;;;;;;5062291;28;20086;-77
2022/12/08 11:16:55;;;;;;;5.97;4.53;;;1.10;99.90;;;;;;5065941;28;20055;-77
2022/12/08 11:19:25;;;;;;;6.60;4.50;;;1.10;99.90;;;;;;5046391;28;20093;-77
2022/12/08 11:21:52;;;;;;;6.20;5.25;;;1.20;99.90;;;;;;5031020;28;20051;-77
2022/12/08 11:24:24;;;;;;;6.13;5.18;;;1.30;99.90;;;;;;5063301;28;20048;-77
2022/12/08 11:27:01;;;;;;;6.78;4.32;;;1.30;99.90;;;;;;5063258;28;20084;-77
2022/12/08 11:29:29;;;;;;;5.40;4.45;;;1.40;99.90;;;;;;5046698;28;20128;-76
2022/12/08 11:32:20;;;;;;;6.25;3.88;;;1.40;99.90;;;;;;5057769;28;20048;-75
2022/12/08 11:35:02;;;;;;;5.45;3.83;;;1.40;99.90;;;;;;5041158;28;20045;-76
2022/12/08 11:37:36;;;;;;;5.70;4.00;;;1.50;99.90;;;;;;5059597;28;20050;-76
2022/12/08 11:40:06;;;;;;;;;;;1.50;99.90;;;;;;5043998;28;20402;-76
2022/12/08 11:42:47;;;;;;;4.93;3.60;;;1.60;99.90;;;;;;5039449;28;20118;-76
2022/12/08 11:45:18;;;;;;;4.57;3.70;;;1.60;99.90;;;;;;5043153;28;20049;-76
2022/12/08 11:47:52;;;;;;;4.75;3.97;;;1.70;99.90;;;;;;5026971;28;20123;-76
2022/12/08 11:50:28;;;;;;;6.10;4.55;;;1.70;99.90;;;;;;5051159;28;20382;-76
2022/12/08 11:52:55;;;;;;;4.75;4.00;;;1.80;99.90;;;;;;5057722;28;20040;-76
2022/12/08 11:55:25;;;;;;;5.57;4.35;;;1.90;99.90;;;;;;5044383;28;20054;-76
2022/12/08 11:57:51;;;;;;;5.18;4.25;;;2.00;99.90;;;;;;5058210;28;20346;-76
2022/12/08 12:00:18;;;;;;;5.60;4.85;;;2.10;99.90;;;;;;5060668;28;20529;-76
2022/12/08 12:02:48;;;;;;;5.90;4.53;;;2.10;99.90;;;;;;5057271;28;20151;-77
2022/12/08 12:05:45;;;;;;;5.68;4.57;;;2.20;99.90;;;;;;5039165;28;20406;-77
2022/12/08 12:09:01;;;;;;;7.28;5.63;;;2.40;99.90;;;;;;5058473;28;20044;-78
2022/12/08 12:14:51;;;;;;;7.47;6.18;;;2.80;99.90;;;;;;5066131;28;20115;-78
2022/12/08 12:17:43;;;;;;;8.48;6.50;;;2.90;99.90;;;;;;5042694;28;20586;-78
2022/12/08 12:20:29;;;;;;;5.03;4.53;;;3.10;99.90;;;;;;5060853;28;20467;-78
2022/12/08 12:23:04;;;;;;;5.60;5.03;;;3.30;99.90;;;;;;5059226;28;20128;-78
2022/12/08 12:25:31;;;;;;;5.80;5.20;;;3.40;99.90;;;;;;5060242;28;20075;-78
2022/12/08 12:28:01;;;;;;;6.88;5.97;;;3.60;99.90;;;;;;5060415;28;20075;-78
2022/12/08 12:30:53;;;;;;;6.95;6.03;;;3.70;99.90;;;;;;5059570;28;20052;-78
2022/12/08 12:33:21;;;;;;;6.38;5.15;;;3.90;99.90;;;;;;5055084;28;20068;-79
2022/12/08 12:35:47;;;;;;;7.35;5.85;;;4.10;99.90;;;;;;5036701;28;20052;-78
2022/12/08 12:41:06;;;;;;;7.55;6.22;;;4.40;99.90;;;;;;5058776;28;20044;-78
2022/12/08 12:43:34;;;;;;;7.43;5.68;;;4.50;99.90;;;;;;5058444;28;20048;-78
2022/12/08 12:46:24;;;;;;;7.07;4.75;;;4.60;99.90;;;;;;5043470;28;20450;-78
2022/12/08 12:48:51;;;;;;;6.93;5.63;;;4.70;99.90;;;;;;5039051;28;20398;-78
2022/12/08 12:51:42;;;;;;;6.90;4.63;;;4.80;99.90;;;;;;5060272;28;20079;-78
2022/12/08 12:54:25;;;;;;;7.68;5.45;;;4.80;99.90;;;;;;5061422;28;20546;-78
2022/12/08 12:56:52;;;;;;;7.90;6.43;;;4.90;99.90;;;;;;5060417;28;20195;-78
2022/12/08 12:59:42;;;;;;;6.90;6.20;;;4.80;99.90;;;;;;5060754;28;20048;-78
2022/12/08 13:02:38;;;;;;;6.07;5.43;;;4.80;99.90;;;;;;5062916;28;20075;-78
2022/12/08 13:05:15;;;;;;;5.38;4.65;;;4.80;99.90;;;;;;5061113;28;20408;-78
2022/12/08 13:07:52;;;;;;;4.45;4.03;;;5.10;99.90;;;;;;5060909;28;20076;-78
2022/12/08 13:10:20;;;;;;;5.72;3.92;;;5.30;99.90;;;;;;5062480;28;20055;-78
2022/12/08 13:13:00;;;;;;;4.97;3.85;;;5.50;99.90;;;;;;5053721;28;20132;-79
2022/12/08 13:15:31;;;;;;;4.80;3.90;;;5.60;99.90;;;;;;5052853;28;20369;-78
2022/12/08 13:17:58;;;;;;;3.70;3.03;;;5.70;99.90;;;;;;5055071;28;20049;-78
2022/12/08 13:20:25;;;;;;;3.47;3.08;;;5.80;99.90;;;;;;5058028;28;20661;-78